Evening Tide — WY9441 — position and weather

sailwx.info

Track history (hours):
 
Tides and Currents Weather Stations Pressure Air Temp Water Temp Dewpoint Dewpoint Depression Visibility Wind Speed Wind Dir Waves Ship Positions

Evening Tide

Owner: TUG EVENING TIDE CORP, MELVILLE, NY. More information available from US FCC via Universal Licensing System and Coast Guard Vessel Documentation Center.

Last reported at 2017-Oct-19 14:00 UTC. Time now 2017-Oct-19 14:35 UTC.
Position N 41°59' W 070°28'.

Length 43 m; draft 5 m.

Type: Towing. MMSI: 367006620.

Date/timePositionNaut miles runAvg speedWind from/ knotsBaromVisibWave heightAir tempDewpointWater temp
2017-Oct-19 14:00N 41°59' W 070°28'3 6.3
2017-Oct-19 13:29N 41°56' W 070°27'7 5.8
2017-Oct-19 12:14N 41°48' W 070°27'1 1.8
2017-Oct-19 11:56N 41°48' W 070°27'1 1.3
2017-Oct-19 11:30N 41°48' W 070°28'8 8.6
2017-Oct-19 10:36N 41°44' W 070°37'2 9.8
2017-Oct-19 10:22N 41°43' W 070°39'9 7.7
2017-Oct-19 09:15N 41°35' W 070°43'14 5.4
2017-Oct-19 06:38N 41°27' W 070°60'55 6.0
2017-Oct-18 21:32N 41°14' W 072°10'0 7.2
2017-Oct-18 21:28N 41°14' W 072°11'3 7.3
2017-Oct-18 21:00N 41°13' W 072°15'4 7.3
2017-Oct-18 20:29N 41°12' W 072°20'4 7.5
2017-Oct-18 20:00N 41°11' W 072°25'4 7.7
2017-Oct-18 19:30N 41°11' W 072°30'4 7.9
2017-Oct-18 19:00N 41°11' W 072°35'4 7.7
2017-Oct-18 18:30N 41°11' W 072°40'4 7.5
2017-Oct-18 18:00N 41°12' W 072°45'4 7.3
2017-Oct-18 17:29N 41°12' W 072°50'2 3.9
2017-Oct-18 16:56N 41°12' W 072°53'46 2.3
2017-Oct-17 20:36N 40°50' W 073°46'2 6.8
2017-Oct-17 20:17N 40°48' W 073°48'2 7.8
2017-Oct-17 20:00N 40°48' W 073°51'3 6.6
2017-Oct-17 19:30N 40°48' W 073°55'3 6.0
2017-Oct-17 19:00N 40°45' W 073°58'3 5.4
2017-Oct-17 18:30N 40°43' W 073°58'2 4.6
2017-Oct-17 18:00N 40°41' W 074°01'2 5.0
2017-Oct-17 17:30N 40°39' W 074°03'0 0.8
2017-Oct-17 17:00N 40°39' W 074°03'0 0.0
2017-Oct-17 16:30N 40°39' W 074°03'0 0.0
2017-Oct-17 16:00N 40°39' W 074°03'0 0.0
2017-Oct-17 15:30N 40°39' W 074°03'0 0.0
2017-Oct-17 15:00N 40°39' W 074°03'0 0.1
2017-Oct-17 14:30N 40°39' W 074°03'0 0.0
2017-Oct-17 14:00N 40°39' W 074°03'0 0.8
2017-Oct-17 13:30N 40°39' W 074°03'3 6.8
2017-Oct-17 13:00N 40°39' W 074°08'3 6.1
2017-Oct-17 12:30N 40°38' W 074°12'3 5.7
2017-Oct-17 11:58N 40°35' W 074°12'2 4.9
2017-Oct-17 11:30N 40°33' W 074°14'1 0.7
2017-Oct-17 10:19N 40°33' W 074°15'1 2.2
2017-Oct-17 09:50N 40°33' W 074°14'0 0.0
2017-Oct-17 09:29N 40°33' W 074°14'0 0.0
2017-Oct-17 02:03N 40°33' W 074°14'0 2.8
2017-Oct-17 01:59N 40°33' W 074°14'3 6.5
2017-Oct-17 01:30N 40°36' W 074°12'3 6.8
2017-Oct-17 01:00N 40°39' W 074°09'1 2.4
2017-Oct-17 00:28N 40°38' W 074°07'0 0.0
2017-Oct-16 23:58N 40°38' W 074°07'0 0.0
2017-Oct-16 23:28N 40°38' W 074°07'0 0.0
2017-Oct-16 22:58N 40°38' W 074°07'0 0.0
2017-Oct-16 22:28N 40°38' W 074°07'0 0.0
2017-Oct-16 21:58N 40°39' W 074°07'2 4.3
2017-Oct-16 21:30N 40°39' W 074°10'4 8.5
2017-Oct-16 21:00N 40°35' W 074°12'3 2.4
2017-Oct-16 19:53N 40°33' W 074°15'2 5.0
2017-Oct-16 19:25N 40°35' W 074°13'3 6.0
2017-Oct-16 19:00N 40°37' W 074°12'3 6.0
2017-Oct-16 18:30N 40°39' W 074°09'4 7.7
2017-Oct-16 18:00N 40°39' W 074°04'2 3.2
2017-Oct-16 17:29N 40°40' W 074°02'0 0.0
2017-Oct-16 16:59N 40°40' W 074°02'0 0.0
2017-Oct-16 16:29N 40°40' W 074°02'0 0.0
2017-Oct-16 15:59N 40°40' W 074°02'0 0.0
2017-Oct-16 15:29N 40°40' W 074°02'0 0.0
2017-Oct-16 14:59N 40°40' W 074°02'0 0.0
2017-Oct-16 14:29N 40°40' W 074°02'0 0.0
2017-Oct-16 13:29N 40°40' W 074°02'0 0.0
2017-Oct-16 12:59N 40°40' W 074°02'0 0.0
2017-Oct-16 12:29N 40°40' W 074°02'0 0.0
2017-Oct-16 11:59N 40°40' W 074°02'0 0.1
2017-Oct-16 11:29N 40°40' W 074°02'0 0.0
2017-Oct-16 10:59N 40°40' W 074°02'0 0.0
2017-Oct-16 10:29N 40°40' W 074°02'0 0.0
2017-Oct-16 09:59N 40°40' W 074°02'0 0.1
2017-Oct-16 09:29N 40°40' W 074°02'0 0.0
2017-Oct-16 08:59N 40°40' W 074°02'0 0.1
2017-Oct-16 08:29N 40°40' W 074°02'0 0.0
2017-Oct-16 07:59N 40°40' W 074°02'0 0.0
2017-Oct-16 07:29N 40°40' W 074°02'0 0.0
2017-Oct-16 06:59N 40°40' W 074°02'0 0.0
2017-Oct-16 06:29N 40°40' W 074°02'0 0.1
2017-Oct-16 05:59N 40°40' W 074°02'0 0.0
2017-Oct-16 05:29N 40°40' W 074°02'0 0.0
2017-Oct-16 04:59N 40°40' W 074°02'0 0.0
2017-Oct-16 04:29N 40°40' W 074°02'0 0.0
2017-Oct-16 03:59N 40°40' W 074°02'0 0.1
2017-Oct-16 03:29N 40°40' W 074°02'0 0.1
2017-Oct-16 02:59N 40°40' W 074°02'0 0.1
2017-Oct-16 02:29N 40°40' W 074°02'0 0.2
2017-Oct-16 01:59N 40°40' W 074°02'0 0.1
2017-Oct-16 01:29N 40°40' W 074°02'0 0.0
2017-Oct-16 00:59N 40°40' W 074°02'0 0.0
2017-Oct-16 00:29N 40°40' W 074°02'0 0.0
2017-Oct-15 23:59N 40°40' W 074°02'0 0.0
2017-Oct-15 23:29N 40°40' W 074°02'0 0.0
2017-Oct-15 22:59N 40°40' W 074°02'0 0.0
2017-Oct-15 22:29N 40°40' W 074°02'0 0.0
2017-Oct-15 21:59N 40°40' W 074°02'0 0.0
2017-Oct-15 21:29N 40°40' W 074°02'0 0.0
2017-Oct-15 20:59N 40°40' W 074°02'0 0.0
2017-Oct-15 20:29N 40°40' W 074°02'0 0.0
2017-Oct-15 19:59N 40°40' W 074°02'0 0.0
2017-Oct-15 19:29N 40°40' W 074°02'0 0.0
2017-Oct-15 18:59N 40°40' W 074°02'0 0.0
2017-Oct-15 18:29N 40°40' W 074°02'0 0.0
2017-Oct-15 17:59N 40°40' W 074°02'0 0.0
2017-Oct-15 17:29N 40°40' W 074°02'0 0.0
2017-Oct-15 16:59N 40°40' W 074°02'0 0.2
2017-Oct-15 16:29N 40°40' W 074°02'0 0.0
2017-Oct-15 15:59N 40°40' W 074°02'0 0.1
2017-Oct-15 15:29N 40°40' W 074°02'0 0.0
2017-Oct-15 14:59N 40°40' W 074°02'0 0.0
2017-Oct-15 13:59N 40°40' W 074°02'0 0.1
2017-Oct-15 13:29N 40°40' W 074°02'0 0.0
2017-Oct-15 12:59N 40°40' W 074°02'0 0.0
2017-Oct-15 12:29N 40°40' W 074°02'0 0.1
2017-Oct-15 11:59N 40°40' W 074°02'0 0.0
2017-Oct-15 11:29N 40°40' W 074°02'1 2.1
2017-Oct-15 11:00N 40°39' W 074°03'5 9.2
2017-Oct-15 10:30N 40°39' W 074°09'4 7.4
2017-Oct-15 10:00N 40°36' W 074°12'0 0.1
2017-Oct-15 05:01N 40°35' W 074°12'0 0.0
2017-Oct-15 04:46N 40°35' W 074°12'0 0.0
2017-Oct-14 22:04N 40°35' W 074°12'0 0.1
2017-Oct-14 21:00N 40°35' W 074°12'0 0.0
2017-Oct-14 18:12N 40°35' W 074°12'2 7.7
2017-Oct-14 18:00N 40°37' W 074°12'4 7.9
2017-Oct-14 17:30N 40°39' W 074°07'0 0.1
2017-Oct-14 17:00N 40°39' W 074°07'0 0.0
2017-Oct-14 16:30N 40°39' W 074°07'0 0.0
2017-Oct-14 16:00N 40°39' W 074°07'0 0.0
2017-Oct-14 15:30N 40°39' W 074°07'0 0.0
2017-Oct-14 15:00N 40°39' W 074°07'0 0.0
2017-Oct-14 14:30N 40°39' W 074°07'0 0.0
2017-Oct-14 14:00N 40°39' W 074°07'0 0.0
2017-Oct-14 13:30N 40°39' W 074°07'0 0.0
2017-Oct-14 13:00N 40°39' W 074°07'0 0.0
2017-Oct-14 12:27N 40°39' W 074°07'0 0.0
2017-Oct-14 12:00N 40°39' W 074°07'0 0.0
2017-Oct-14 11:30N 40°39' W 074°07'0 0.0
2017-Oct-14 11:00N 40°39' W 074°07'2 5.0
2017-Oct-14 10:30N 40°39' W 074°10'4 3.2
2017-Oct-14 09:13N 40°35' W 074°12'2 4.3
2017-Oct-14 08:50N 40°33' W 074°13'1 1.9
2017-Oct-14 08:06N 40°33' W 074°15'0 0.0
2017-Oct-14 08:00N 40°33' W 074°15'0 0.0
2017-Oct-14 06:18N 40°33' W 074°15'2 5.3
2017-Oct-14 05:56N 40°34' W 074°13'4 8.7
2017-Oct-14 05:30N 40°38' W 074°12'4 1.5
2017-Oct-14 02:56N 40°39' W 074°07'3 6.3
2017-Oct-14 02:30N 40°39' W 074°04'4 6.6
2017-Oct-14 01:58N 40°42' W 074°00'0 0.2
2017-Oct-14 01:30N 40°41' W 074°00'0 0.0
2017-Oct-14 00:57N 40°42' W 074°00'0 0.0
2017-Oct-14 00:26N 40°42' W 074°00'0 0.0
2017-Oct-13 23:56N 40°42' W 074°00'0 0.0
2017-Oct-13 23:29N 40°42' W 074°00'0 0.0
2017-Oct-13 22:59N 40°42' W 074°00'3 6.2
2017-Oct-13 22:30N 40°39' W 074°03'5 9.6
2017-Oct-13 22:00N 40°39' W 074°09'2 4.3
2017-Oct-13 21:26N 40°38' W 074°12'0 0.0
2017-Oct-13 20:59N 40°38' W 074°12'0 0.3
2017-Oct-13 20:30N 40°38' W 074°12'4 6.4
2017-Oct-13 19:53N 40°39' W 074°07'1 1.3
2017-Oct-13 19:29N 40°39' W 074°07'0 0.1
2017-Oct-13 18:59N 40°39' W 074°07'2 4.2
2017-Oct-13 18:29N 40°39' W 074°04'1 2.9
2017-Oct-13 18:00N 40°40' W 074°02'0 0.1
2017-Oct-13 17:30N 40°40' W 074°02'0 0.0
2017-Oct-13 17:00N 40°40' W 074°02'0 0.0
2017-Oct-13 16:30N 40°40' W 074°02'0 0.0
2017-Oct-13 16:00N 40°40' W 074°02'0 0.0
2017-Oct-13 15:30N 40°40' W 074°02'0 0.0
2017-Oct-13 15:00N 40°40' W 074°02'0 0.0
2017-Oct-13 14:30N 40°40' W 074°02'0 0.0
2017-Oct-13 14:00N 40°40' W 074°02'0 0.0
2017-Oct-13 13:30N 40°40' W 074°02'0 0.0
2017-Oct-13 13:00N 40°40' W 074°02'0 0.0
2017-Oct-13 12:30N 40°40' W 074°02'0 0.0
2017-Oct-13 12:00N 40°40' W 074°02'0 0.0
2017-Oct-13 11:30N 40°40' W 074°02'0 0.0
2017-Oct-13 11:00N 40°40' W 074°02'0 0.0
2017-Oct-13 10:30N 40°40' W 074°02'0 0.0
2017-Oct-13 10:00N 40°40' W 074°02'0 0.0
2017-Oct-13 09:30N 40°40' W 074°02'0 0.0
2017-Oct-13 09:00N 40°40' W 074°02'0 0.0
2017-Oct-13 08:30N 40°40' W 074°02'0 0.0
2017-Oct-13 08:00N 40°40' W 074°02'0 0.0
2017-Oct-13 07:30N 40°40' W 074°02'0 0.0
2017-Oct-13 07:00N 40°40' W 074°02'0 0.0
2017-Oct-13 06:30N 40°40' W 074°02'0 0.0
2017-Oct-13 06:00N 40°40' W 074°02'0 0.0
2017-Oct-13 05:29N 40°40' W 074°02'0 0.0
2017-Oct-13 05:00N 40°40' W 074°02'0 0.0
2017-Oct-13 04:29N 40°40' W 074°02'0 0.0
2017-Oct-13 04:00N 40°40' W 074°02'0 0.0
2017-Oct-13 03:30N 40°40' W 074°02'0 0.0
2017-Oct-13 03:00N 40°40' W 074°02'0 0.0
2017-Oct-13 02:30N 40°40' W 074°02'0 0.0
2017-Oct-13 02:00N 40°40' W 074°02'0 0.0
2017-Oct-13 01:30N 40°40' W 074°02'0 0.0
2017-Oct-13 01:00N 40°40' W 074°02'0 0.0
2017-Oct-13 00:30N 40°40' W 074°02'0 0.0
2017-Oct-13 00:00N 40°40' W 074°02'0 0.0
2017-Oct-12 23:30N 40°40' W 074°02'0 0.0
2017-Oct-12 23:00N 40°40' W 074°02'0 0.0
2017-Oct-12 22:30N 40°40' W 074°02'0 0.0
2017-Oct-12 22:00N 40°40' W 074°02'0 0.0
2017-Oct-12 21:30N 40°40' W 074°02'0 0.0
2017-Oct-12 21:00N 40°40' W 074°02'0 0.0
2017-Oct-12 20:30N 40°40' W 074°02'0 0.0
2017-Oct-12 20:00N 40°40' W 074°02'0 0.0
2017-Oct-12 19:30N 40°40' W 074°02'0 0.0
2017-Oct-12 19:00N 40°40' W 074°02'0 0.1
2017-Oct-12 18:30N 40°40' W 074°02'0 0.0
2017-Oct-12 18:00N 40°40' W 074°02'0 0.0
2017-Oct-12 17:30N 40°40' W 074°02'0 0.0
2017-Oct-12 17:00N 40°40' W 074°02'0 0.0
2017-Oct-12 16:30N 40°40' W 074°02'0 0.0
2017-Oct-12 16:00N 40°40' W 074°02'0 0.0
2017-Oct-12 15:30N 40°40' W 074°02'0 0.0
2017-Oct-12 15:00N 40°40' W 074°02'0 0.0
2017-Oct-12 14:30N 40°40' W 074°02'0 0.0
2017-Oct-12 14:00N 40°40' W 074°02'0 0.0
2017-Oct-12 13:30N 40°40' W 074°02'0 0.0
2017-Oct-12 13:00N 40°40' W 074°02'0 0.0
2017-Oct-12 12:30N 40°40' W 074°02'0 0.0
2017-Oct-12 12:00N 40°40' W 074°02'0 0.0
2017-Oct-12 11:30N 40°40' W 074°02'0 0.0
2017-Oct-12 11:00N 40°40' W 074°02'0 0.0
2017-Oct-12 10:30N 40°40' W 074°02'0 0.0
2017-Oct-12 10:00N 40°40' W 074°02'0 0.0
2017-Oct-12 09:30N 40°40' W 074°02'0 0.0
2017-Oct-12 09:00N 40°40' W 074°02'0 0.0
2017-Oct-12 08:30N 40°40' W 074°02'0 0.0
2017-Oct-12 08:00N 40°40' W 074°02'0 0.0
2017-Oct-12 07:30N 40°40' W 074°02'0 0.0
2017-Oct-12 07:00N 40°40' W 074°02'0 0.0
2017-Oct-12 06:30N 40°40' W 074°02'0 0.0
2017-Oct-12 06:00N 40°40' W 074°02'0 0.0
2017-Oct-12 05:30N 40°40' W 074°02'0 0.0
2017-Oct-12 05:00N 40°40' W 074°02'0 0.0
2017-Oct-12 04:30N 40°40' W 074°02'0 0.0
2017-Oct-12 04:00N 40°40' W 074°02'0 0.0
2017-Oct-12 03:30N 40°40' W 074°02'0 0.0
2017-Oct-12 03:00N 40°40' W 074°02'1 2.3
2017-Oct-12 02:30N 40°39' W 074°03'4 8.2
2017-Oct-12 02:00N 40°39' W 074°09'4 6.9
2017-Oct-12 01:29N 40°36' W 074°12'3 0.9
2017-Oct-11 22:04N 40°33' W 074°14'0 6.8
2017-Oct-11 22:00N 40°33' W 074°14'3 7.0
2017-Oct-11 21:30N 40°37' W 074°12'3 6.6
2017-Oct-11 21:00N 40°39' W 074°08'3 6.9
2017-Oct-11 20:30N 40°39' W 074°04'1 1.1
2017-Oct-11 20:00N 40°38' W 074°04'2 4.1
2017-Oct-11 19:30N 40°40' W 074°03'3 6.8
2017-Oct-11 19:00N 40°42' W 073°59'3 7.0
2017-Oct-11 18:30N 40°46' W 073°57'3 5.4
2017-Oct-11 18:00N 40°48' W 073°55'3 5.2
2017-Oct-11 17:30N 40°48' W 073°51'169 6.4
2017-Oct-10 14:56N 42°14' W 070°37'8 8.4
2017-Oct-10 14:00N 42°19' W 070°45'4 8.4
2017-Oct-10 13:30N 42°22' W 070°49'3 6.2
2017-Oct-10 13:01N 42°22' W 070°53'3 6.6
2017-Oct-10 12:30N 42°20' W 070°57'1 2.5
2017-Oct-10 12:00N 42°20' W 070°58'0 0.1
2017-Oct-10 11:30N 42°20' W 070°58'0 0.0
2017-Oct-10 11:00N 42°20' W 070°58'0 0.0
2017-Oct-10 10:30N 42°20' W 070°58'0 0.0
2017-Oct-10 10:00N 42°20' W 070°58'0 0.0
2017-Oct-10 09:30N 42°20' W 070°58'0 0.0
2017-Oct-10 09:00N 42°20' W 070°58'0 0.0
2017-Oct-10 08:30N 42°20' W 070°58'0 0.0
2017-Oct-10 08:00N 42°20' W 070°58'0 0.0
2017-Oct-10 07:30N 42°20' W 070°58'0 0.0
2017-Oct-10 07:00N 42°20' W 070°58'0 0.0
2017-Oct-10 06:30N 42°20' W 070°58'0 0.0
2017-Oct-10 06:00N 42°20' W 070°58'0 0.0
2017-Oct-10 05:31N 42°20' W 070°58'0 0.0
2017-Oct-10 05:00N 42°20' W 070°58'0 0.0
2017-Oct-10 04:30N 42°20' W 070°58'0 0.0
2017-Oct-10 04:00N 42°20' W 070°58'0 0.0
2017-Oct-10 03:30N 42°20' W 070°58'0 0.0
2017-Oct-10 03:00N 42°20' W 070°58'0 0.0
2017-Oct-10 02:30N 42°20' W 070°58'0 0.0
2017-Oct-10 02:00N 42°20' W 070°58'0 0.0
2017-Oct-10 01:30N 42°20' W 070°58'0 0.0
2017-Oct-10 01:00N 42°20' W 070°58'0 0.0
2017-Oct-10 00:30N 42°20' W 070°58'0 0.0
2017-Oct-10 00:00N 42°20' W 070°58'0 0.0
2017-Oct-09 23:30N 42°20' W 070°58'0 0.0
2017-Oct-09 23:00N 42°20' W 070°58'0 0.0
2017-Oct-09 22:30N 42°20' W 070°58'0 0.0
2017-Oct-09 22:00N 42°20' W 070°58'0 0.0
2017-Oct-09 21:30N 42°20' W 070°58'0 0.0
2017-Oct-09 21:01N 42°20' W 070°58'0 0.0
2017-Oct-09 20:30N 42°20' W 070°58'0 0.0
2017-Oct-09 20:00N 42°20' W 070°58'0 0.0
2017-Oct-09 19:31N 42°20' W 070°58'0 0.0
2017-Oct-09 19:00N 42°20' W 070°58'0 0.0
2017-Oct-09 18:30N 42°20' W 070°58'0 0.0
2017-Oct-09 18:00N 42°20' W 070°58'0 0.0
2017-Oct-09 17:30N 42°20' W 070°58'0 0.0
2017-Oct-09 17:00N 42°20' W 070°58'0 0.0
2017-Oct-09 16:30N 42°20' W 070°58'0 0.0
2017-Oct-09 16:00N 42°20' W 070°58'0 0.0
2017-Oct-09 15:30N 42°20' W 070°58'0 0.0
2017-Oct-09 15:00N 42°20' W 070°58'0 0.0
2017-Oct-09 14:30N 42°20' W 070°58'0 0.1
2017-Oct-09 14:00N 42°21' W 070°58'  
Track history (hours):
 
Tides and Currents Weather Stations Pressure Air Temp Water Temp Dewpoint Dewpoint Depression Visibility Wind Speed Wind Dir Waves Ship Positions

Evening Tide

Owner: TUG EVENING TIDE CORP, MELVILLE, NY. More information available from US FCC via Universal Licensing System and Coast Guard Vessel Documentation Center.

Last reported at 2017-Oct-19 14:00 UTC. Time now 2017-Oct-19 14:35 UTC.
Position N 41°59' W 070°28'.

Length 43 m; draft 5 m.

Type: Towing. MMSI: 367006620.

Date/timePositionNaut miles runAvg speedWind from/ knotsBaromVisibWave heightAir tempDewpointWater temp
2017-Oct-19 14:00N 41°59' W 070°28'3 6.3
2017-Oct-19 13:29N 41°56' W 070°27'7 5.8
2017-Oct-19 12:14N 41°48' W 070°27'1 1.8
2017-Oct-19 11:56N 41°48' W 070°27'1 1.3
2017-Oct-19 11:30N 41°48' W 070°28'8 8.6
2017-Oct-19 10:36N 41°44' W 070°37'2 9.8
2017-Oct-19 10:22N 41°43' W 070°39'9 7.7
2017-Oct-19 09:15N 41°35' W 070°43'14 5.4
2017-Oct-19 06:38N 41°27' W 070°60'55 6.0
2017-Oct-18 21:32N 41°14' W 072°10'0 7.2
2017-Oct-18 21:28N 41°14' W 072°11'3 7.3
2017-Oct-18 21:00N 41°13' W 072°15'4 7.3
2017-Oct-18 20:29N 41°12' W 072°20'4 7.5
2017-Oct-18 20:00N 41°11' W 072°25'4 7.7
2017-Oct-18 19:30N 41°11' W 072°30'4 7.9
2017-Oct-18 19:00N 41°11' W 072°35'4 7.7
2017-Oct-18 18:30N 41°11' W 072°40'4 7.5
2017-Oct-18 18:00N 41°12' W 072°45'4 7.3
2017-Oct-18 17:29N 41°12' W 072°50'2 3.9
2017-Oct-18 16:56N 41°12' W 072°53'46 2.3
2017-Oct-17 20:36N 40°50' W 073°46'2 6.8
2017-Oct-17 20:17N 40°48' W 073°48'2 7.8
2017-Oct-17 20:00N 40°48' W 073°51'3 6.6
2017-Oct-17 19:30N 40°48' W 073°55'3 6.0
2017-Oct-17 19:00N 40°45' W 073°58'3 5.4
2017-Oct-17 18:30N 40°43' W 073°58'2 4.6
2017-Oct-17 18:00N 40°41' W 074°01'2 5.0
2017-Oct-17 17:30N 40°39' W 074°03'0 0.8
2017-Oct-17 17:00N 40°39' W 074°03'0 0.0
2017-Oct-17 16:30N 40°39' W 074°03'0 0.0
2017-Oct-17 16:00N 40°39' W 074°03'0 0.0
2017-Oct-17 15:30N 40°39' W 074°03'0 0.0
2017-Oct-17 15:00N 40°39' W 074°03'0 0.1
2017-Oct-17 14:30N 40°39' W 074°03'0 0.0
2017-Oct-17 14:00N 40°39' W 074°03'0 0.8
2017-Oct-17 13:30N 40°39' W 074°03'3 6.8
2017-Oct-17 13:00N 40°39' W 074°08'3 6.1
2017-Oct-17 12:30N 40°38' W 074°12'3 5.7
2017-Oct-17 11:58N 40°35' W 074°12'2 4.9
2017-Oct-17 11:30N 40°33' W 074°14'1 0.7
2017-Oct-17 10:19N 40°33' W 074°15'1 2.2
2017-Oct-17 09:50N 40°33' W 074°14'0 0.0
2017-Oct-17 09:29N 40°33' W 074°14'0 0.0
2017-Oct-17 02:03N 40°33' W 074°14'0 2.8
2017-Oct-17 01:59N 40°33' W 074°14'3 6.5
2017-Oct-17 01:30N 40°36' W 074°12'3 6.8
2017-Oct-17 01:00N 40°39' W 074°09'1 2.4
2017-Oct-17 00:28N 40°38' W 074°07'0 0.0
2017-Oct-16 23:58N 40°38' W 074°07'0 0.0
2017-Oct-16 23:28N 40°38' W 074°07'0 0.0
2017-Oct-16 22:58N 40°38' W 074°07'0 0.0
2017-Oct-16 22:28N 40°38' W 074°07'0 0.0
2017-Oct-16 21:58N 40°39' W 074°07'2 4.3
2017-Oct-16 21:30N 40°39' W 074°10'4 8.5
2017-Oct-16 21:00N 40°35' W 074°12'3 2.4
2017-Oct-16 19:53N 40°33' W 074°15'2 5.0
2017-Oct-16 19:25N 40°35' W 074°13'3 6.0
2017-Oct-16 19:00N 40°37' W 074°12'3 6.0
2017-Oct-16 18:30N 40°39' W 074°09'4 7.7
2017-Oct-16 18:00N 40°39' W 074°04'2 3.2
2017-Oct-16 17:29N 40°40' W 074°02'0 0.0
2017-Oct-16 16:59N 40°40' W 074°02'0 0.0
2017-Oct-16 16:29N 40°40' W 074°02'0 0.0
2017-Oct-16 15:59N 40°40' W 074°02'0 0.0
2017-Oct-16 15:29N 40°40' W 074°02'0 0.0
2017-Oct-16 14:59N 40°40' W 074°02'0 0.0
2017-Oct-16 14:29N 40°40' W 074°02'0 0.0
2017-Oct-16 13:29N 40°40' W 074°02'0 0.0
2017-Oct-16 12:59N 40°40' W 074°02'0 0.0
2017-Oct-16 12:29N 40°40' W 074°02'0 0.0
2017-Oct-16 11:59N 40°40' W 074°02'0 0.1
2017-Oct-16 11:29N 40°40' W 074°02'0 0.0
2017-Oct-16 10:59N 40°40' W 074°02'0 0.0
2017-Oct-16 10:29N 40°40' W 074°02'0 0.0
2017-Oct-16 09:59N 40°40' W 074°02'0 0.1
2017-Oct-16 09:29N 40°40' W 074°02'0 0.0
2017-Oct-16 08:59N 40°40' W 074°02'0 0.1
2017-Oct-16 08:29N 40°40' W 074°02'0 0.0
2017-Oct-16 07:59N 40°40' W 074°02'0 0.0
2017-Oct-16 07:29N 40°40' W 074°02'0 0.0
2017-Oct-16 06:59N 40°40' W 074°02'0 0.0
2017-Oct-16 06:29N 40°40' W 074°02'0 0.1
2017-Oct-16 05:59N 40°40' W 074°02'0 0.0
2017-Oct-16 05:29N 40°40' W 074°02'0 0.0
2017-Oct-16 04:59N 40°40' W 074°02'0 0.0
2017-Oct-16 04:29N 40°40' W 074°02'0 0.0
2017-Oct-16 03:59N 40°40' W 074°02'0 0.1
2017-Oct-16 03:29N 40°40' W 074°02'0 0.1
2017-Oct-16 02:59N 40°40' W 074°02'0 0.1
2017-Oct-16 02:29N 40°40' W 074°02'0 0.2
2017-Oct-16 01:59N 40°40' W 074°02'0 0.1
2017-Oct-16 01:29N 40°40' W 074°02'0 0.0
2017-Oct-16 00:59N 40°40' W 074°02'0 0.0
2017-Oct-16 00:29N 40°40' W 074°02'0 0.0
2017-Oct-15 23:59N 40°40' W 074°02'0 0.0
2017-Oct-15 23:29N 40°40' W 074°02'0 0.0
2017-Oct-15 22:59N 40°40' W 074°02'0 0.0
2017-Oct-15 22:29N 40°40' W 074°02'0 0.0
2017-Oct-15 21:59N 40°40' W 074°02'0 0.0
2017-Oct-15 21:29N 40°40' W 074°02'0 0.0
2017-Oct-15 20:59N 40°40' W 074°02'0 0.0
2017-Oct-15 20:29N 40°40' W 074°02'0 0.0
2017-Oct-15 19:59N 40°40' W 074°02'0 0.0
2017-Oct-15 19:29N 40°40' W 074°02'0 0.0
2017-Oct-15 18:59N 40°40' W 074°02'0 0.0
2017-Oct-15 18:29N 40°40' W 074°02'0 0.0
2017-Oct-15 17:59N 40°40' W 074°02'0 0.0
2017-Oct-15 17:29N 40°40' W 074°02'0 0.0
2017-Oct-15 16:59N 40°40' W 074°02'0 0.2
2017-Oct-15 16:29N 40°40' W 074°02'0 0.0
2017-Oct-15 15:59N 40°40' W 074°02'0 0.1
2017-Oct-15 15:29N 40°40' W 074°02'0 0.0
2017-Oct-15 14:59N 40°40' W 074°02'0 0.0
2017-Oct-15 13:59N 40°40' W 074°02'0 0.1
2017-Oct-15 13:29N 40°40' W 074°02'0 0.0
2017-Oct-15 12:59N 40°40' W 074°02'0 0.0
2017-Oct-15 12:29N 40°40' W 074°02'0 0.1
2017-Oct-15 11:59N 40°40' W 074°02'0 0.0
2017-Oct-15 11:29N 40°40' W 074°02'1 2.1
2017-Oct-15 11:00N 40°39' W 074°03'5 9.2
2017-Oct-15 10:30N 40°39' W 074°09'4 7.4
2017-Oct-15 10:00N 40°36' W 074°12'0 0.1
2017-Oct-15 05:01N 40°35' W 074°12'0 0.0
2017-Oct-15 04:46N 40°35' W 074°12'0 0.0
2017-Oct-14 22:04N 40°35' W 074°12'0 0.1
2017-Oct-14 21:00N 40°35' W 074°12'0 0.0
2017-Oct-14 18:12N 40°35' W 074°12'2 7.7
2017-Oct-14 18:00N 40°37' W 074°12'4 7.9
2017-Oct-14 17:30N 40°39' W 074°07'0 0.1
2017-Oct-14 17:00N 40°39' W 074°07'0 0.0
2017-Oct-14 16:30N 40°39' W 074°07'0 0.0
2017-Oct-14 16:00N 40°39' W 074°07'0 0.0
2017-Oct-14 15:30N 40°39' W 074°07'0 0.0
2017-Oct-14 15:00N 40°39' W 074°07'0 0.0
2017-Oct-14 14:30N 40°39' W 074°07'0 0.0
2017-Oct-14 14:00N 40°39' W 074°07'0 0.0
2017-Oct-14 13:30N 40°39' W 074°07'0 0.0
2017-Oct-14 13:00N 40°39' W 074°07'0 0.0
2017-Oct-14 12:27N 40°39' W 074°07'0 0.0
2017-Oct-14 12:00N 40°39' W 074°07'0 0.0
2017-Oct-14 11:30N 40°39' W 074°07'0 0.0
2017-Oct-14 11:00N 40°39' W 074°07'2 5.0
2017-Oct-14 10:30N 40°39' W 074°10'4 3.2
2017-Oct-14 09:13N 40°35' W 074°12'2 4.3
2017-Oct-14 08:50N 40°33' W 074°13'1 1.9
2017-Oct-14 08:06N 40°33' W 074°15'0 0.0
2017-Oct-14 08:00N 40°33' W 074°15'0 0.0
2017-Oct-14 06:18N 40°33' W 074°15'2 5.3
2017-Oct-14 05:56N 40°34' W 074°13'4 8.7
2017-Oct-14 05:30N 40°38' W 074°12'4 1.5
2017-Oct-14 02:56N 40°39' W 074°07'3 6.3
2017-Oct-14 02:30N 40°39' W 074°04'4 6.6
2017-Oct-14 01:58N 40°42' W 074°00'0 0.2
2017-Oct-14 01:30N 40°41' W 074°00'0 0.0
2017-Oct-14 00:57N 40°42' W 074°00'0 0.0
2017-Oct-14 00:26N 40°42' W 074°00'0 0.0
2017-Oct-13 23:56N 40°42' W 074°00'0 0.0
2017-Oct-13 23:29N 40°42' W 074°00'0 0.0
2017-Oct-13 22:59N 40°42' W 074°00'3 6.2
2017-Oct-13 22:30N 40°39' W 074°03'5 9.6
2017-Oct-13 22:00N 40°39' W 074°09'2 4.3
2017-Oct-13 21:26N 40°38' W 074°12'0 0.0
2017-Oct-13 20:59N 40°38' W 074°12'0 0.3
2017-Oct-13 20:30N 40°38' W 074°12'4 6.4
2017-Oct-13 19:53N 40°39' W 074°07'1 1.3
2017-Oct-13 19:29N 40°39' W 074°07'0 0.1
2017-Oct-13 18:59N 40°39' W 074°07'2 4.2
2017-Oct-13 18:29N 40°39' W 074°04'1 2.9
2017-Oct-13 18:00N 40°40' W 074°02'0 0.1
2017-Oct-13 17:30N 40°40' W 074°02'0 0.0
2017-Oct-13 17:00N 40°40' W 074°02'0 0.0
2017-Oct-13 16:30N 40°40' W 074°02'0 0.0
2017-Oct-13 16:00N 40°40' W 074°02'0 0.0
2017-Oct-13 15:30N 40°40' W 074°02'0 0.0
2017-Oct-13 15:00N 40°40' W 074°02'0 0.0
2017-Oct-13 14:30N 40°40' W 074°02'0 0.0
2017-Oct-13 14:00N 40°40' W 074°02'0 0.0
2017-Oct-13 13:30N 40°40' W 074°02'0 0.0
2017-Oct-13 13:00N 40°40' W 074°02'0 0.0
2017-Oct-13 12:30N 40°40' W 074°02'0 0.0
2017-Oct-13 12:00N 40°40' W 074°02'0 0.0
2017-Oct-13 11:30N 40°40' W 074°02'0 0.0
2017-Oct-13 11:00N 40°40' W 074°02'0 0.0
2017-Oct-13 10:30N 40°40' W 074°02'0 0.0
2017-Oct-13 10:00N 40°40' W 074°02'0 0.0
2017-Oct-13 09:30N 40°40' W 074°02'0 0.0
2017-Oct-13 09:00N 40°40' W 074°02'0 0.0
2017-Oct-13 08:30N 40°40' W 074°02'0 0.0
2017-Oct-13 08:00N 40°40' W 074°02'0 0.0
2017-Oct-13 07:30N 40°40' W 074°02'0 0.0
2017-Oct-13 07:00N 40°40' W 074°02'0 0.0
2017-Oct-13 06:30N 40°40' W 074°02'0 0.0
2017-Oct-13 06:00N 40°40' W 074°02'0 0.0
2017-Oct-13 05:29N 40°40' W 074°02'0 0.0
2017-Oct-13 05:00N 40°40' W 074°02'0 0.0
2017-Oct-13 04:29N 40°40' W 074°02'0 0.0
2017-Oct-13 04:00N 40°40' W 074°02'0 0.0
2017-Oct-13 03:30N 40°40' W 074°02'0 0.0
2017-Oct-13 03:00N 40°40' W 074°02'0 0.0
2017-Oct-13 02:30N 40°40' W 074°02'0 0.0
2017-Oct-13 02:00N 40°40' W 074°02'0 0.0
2017-Oct-13 01:30N 40°40' W 074°02'0 0.0
2017-Oct-13 01:00N 40°40' W 074°02'0 0.0
2017-Oct-13 00:30N 40°40' W 074°02'0 0.0
2017-Oct-13 00:00N 40°40' W 074°02'0 0.0
2017-Oct-12 23:30N 40°40' W 074°02'0 0.0
2017-Oct-12 23:00N 40°40' W 074°02'0 0.0
2017-Oct-12 22:30N 40°40' W 074°02'0 0.0
2017-Oct-12 22:00N 40°40' W 074°02'0 0.0
2017-Oct-12 21:30N 40°40' W 074°02'0 0.0
2017-Oct-12 21:00N 40°40' W 074°02'0 0.0
2017-Oct-12 20:30N 40°40' W 074°02'0 0.0
2017-Oct-12 20:00N 40°40' W 074°02'0 0.0
2017-Oct-12 19:30N 40°40' W 074°02'0 0.0
2017-Oct-12 19:00N 40°40' W 074°02'0 0.1
2017-Oct-12 18:30N 40°40' W 074°02'0 0.0
2017-Oct-12 18:00N 40°40' W 074°02'0 0.0
2017-Oct-12 17:30N 40°40' W 074°02'0 0.0
2017-Oct-12 17:00N 40°40' W 074°02'0 0.0
2017-Oct-12 16:30N 40°40' W 074°02'0 0.0
2017-Oct-12 16:00N 40°40' W 074°02'0 0.0
2017-Oct-12 15:30N 40°40' W 074°02'0 0.0
2017-Oct-12 15:00N 40°40' W 074°02'0 0.0
2017-Oct-12 14:30N 40°40' W 074°02'0 0.0
2017-Oct-12 14:00N 40°40' W 074°02'0 0.0
2017-Oct-12 13:30N 40°40' W 074°02'0 0.0
2017-Oct-12 13:00N 40°40' W 074°02'0 0.0
2017-Oct-12 12:30N 40°40' W 074°02'0 0.0
2017-Oct-12 12:00N 40°40' W 074°02'0 0.0
2017-Oct-12 11:30N 40°40' W 074°02'0 0.0
2017-Oct-12 11:00N 40°40' W 074°02'0 0.0
2017-Oct-12 10:30N 40°40' W 074°02'0 0.0
2017-Oct-12 10:00N 40°40' W 074°02'0 0.0
2017-Oct-12 09:30N 40°40' W 074°02'0 0.0
2017-Oct-12 09:00N 40°40' W 074°02'0 0.0
2017-Oct-12 08:30N 40°40' W 074°02'0 0.0
2017-Oct-12 08:00N 40°40' W 074°02'0 0.0
2017-Oct-12 07:30N 40°40' W 074°02'0 0.0
2017-Oct-12 07:00N 40°40' W 074°02'0 0.0
2017-Oct-12 06:30N 40°40' W 074°02'0 0.0
2017-Oct-12 06:00N 40°40' W 074°02'0 0.0
2017-Oct-12 05:30N 40°40' W 074°02'0 0.0
2017-Oct-12 05:00N 40°40' W 074°02'0 0.0
2017-Oct-12 04:30N 40°40' W 074°02'0 0.0
2017-Oct-12 04:00N 40°40' W 074°02'0 0.0
2017-Oct-12 03:30N 40°40' W 074°02'0 0.0
2017-Oct-12 03:00N 40°40' W 074°02'1 2.3
2017-Oct-12 02:30N 40°39' W 074°03'4 8.2
2017-Oct-12 02:00N 40°39' W 074°09'4 6.9
2017-Oct-12 01:29N 40°36' W 074°12'3 0.9
2017-Oct-11 22:04N 40°33' W 074°14'0 6.8
2017-Oct-11 22:00N 40°33' W 074°14'3 7.0
2017-Oct-11 21:30N 40°37' W 074°12'3 6.6
2017-Oct-11 21:00N 40°39' W 074°08'3 6.9
2017-Oct-11 20:30N 40°39' W 074°04'1 1.1
2017-Oct-11 20:00N 40°38' W 074°04'2 4.1
2017-Oct-11 19:30N 40°40' W 074°03'3 6.8
2017-Oct-11 19:00N 40°42' W 073°59'3 7.0
2017-Oct-11 18:30N 40°46' W 073°57'3 5.4
2017-Oct-11 18:00N 40°48' W 073°55'3 5.2
2017-Oct-11 17:30N 40°48' W 073°51'169 6.4
2017-Oct-10 14:56N 42°14' W 070°37'8 8.4
2017-Oct-10 14:00N 42°19' W 070°45'4 8.4
2017-Oct-10 13:30N 42°22' W 070°49'3 6.2
2017-Oct-10 13:01N 42°22' W 070°53'3 6.6
2017-Oct-10 12:30N 42°20' W 070°57'1 2.5
2017-Oct-10 12:00N 42°20' W 070°58'0 0.1
2017-Oct-10 11:30N 42°20' W 070°58'0 0.0
2017-Oct-10 11:00N 42°20' W 070°58'0 0.0
2017-Oct-10 10:30N 42°20' W 070°58'0 0.0
2017-Oct-10 10:00N 42°20' W 070°58'0 0.0
2017-Oct-10 09:30N 42°20' W 070°58'0 0.0
2017-Oct-10 09:00N 42°20' W 070°58'0 0.0
2017-Oct-10 08:30N 42°20' W 070°58'0 0.0
2017-Oct-10 08:00N 42°20' W 070°58'0 0.0
2017-Oct-10 07:30N 42°20' W 070°58'0 0.0
2017-Oct-10 07:00N 42°20' W 070°58'0 0.0
2017-Oct-10 06:30N 42°20' W 070°58'0 0.0
2017-Oct-10 06:00N 42°20' W 070°58'0 0.0
2017-Oct-10 05:31N 42°20' W 070°58'0 0.0
2017-Oct-10 05:00N 42°20' W 070°58'0 0.0
2017-Oct-10 04:30N 42°20' W 070°58'0 0.0
2017-Oct-10 04:00N 42°20' W 070°58'0 0.0
2017-Oct-10 03:30N 42°20' W 070°58'0 0.0
2017-Oct-10 03:00N 42°20' W 070°58'0 0.0
2017-Oct-10 02:30N 42°20' W 070°58'0 0.0
2017-Oct-10 02:00N 42°20' W 070°58'0 0.0
2017-Oct-10 01:30N 42°20' W 070°58'0 0.0
2017-Oct-10 01:00N 42°20' W 070°58'0 0.0
2017-Oct-10 00:30N 42°20' W 070°58'0 0.0
2017-Oct-10 00:00N 42°20' W 070°58'0 0.0
2017-Oct-09 23:30N 42°20' W 070°58'0 0.0
2017-Oct-09 23:00N 42°20' W 070°58'0 0.0
2017-Oct-09 22:30N 42°20' W 070°58'0 0.0
2017-Oct-09 22:00N 42°20' W 070°58'0 0.0
2017-Oct-09 21:30N 42°20' W 070°58'0 0.0
2017-Oct-09 21:01N 42°20' W 070°58'0 0.0
2017-Oct-09 20:30N 42°20' W 070°58'0 0.0
2017-Oct-09 20:00N 42°20' W 070°58'0 0.0
2017-Oct-09 19:31N 42°20' W 070°58'0 0.0
2017-Oct-09 19:00N 42°20' W 070°58'0 0.0
2017-Oct-09 18:30N 42°20' W 070°58'0 0.0
2017-Oct-09 18:00N 42°20' W 070°58'0 0.0
2017-Oct-09 17:30N 42°20' W 070°58'0 0.0
2017-Oct-09 17:00N 42°20' W 070°58'0 0.0
2017-Oct-09 16:30N 42°20' W 070°58'0 0.0
2017-Oct-09 16:00N 42°20' W 070°58'0 0.0
2017-Oct-09 15:30N 42°20' W 070°58'0 0.0
2017-Oct-09 15:00N 42°20' W 070°58'0 0.0
2017-Oct-09 14:30N 42°20' W 070°58'0 0.1
2017-Oct-09 14:00N 42°21' W 070°58'  

Dump ship's entire track history